»·PEaware :: DAL2189 KPDX-KSLC

DAL2189 :: KPDX-KSLC

FLIGHT INFORMATION

Flight Status: Arrived
Operator:
Delta Air Lines
More flights by this operator :: More flights under this callsign
Pilot: Joe P. (13940)
Aircraft: BOEING 737-700
(B737)
More flights by this aircraft type
Origin: KPDX Portland Intl
United States
Destination: KSLC Salt Lake City Intl
United States
More flights between these airports :: More routes between these airports
Route: WHAMY4 IMB J15 BOI BYI SKEES5
File this flight plan on PilotEdge
Remarks: KTWF -PBN / A1B1C1D1L1O1S1 NAV / RNVD1E2A1 DOF / 180729 REG / N389DA EET / KZLC0030 RVR / 200 PER / C
Altitude:
(Current/Filed)
330ft
Speed:
(Current/Filed)
449kts
Departed: 29-Jul-18 10:11 AM
Arrived: 29-Jul-18 11:36 AM
Distance/Time
Traveled:
546nm/1:25
Distance/Time
To Go:
Arrived

Flight Plot

Page will automatically refresh every two minutes.

Flight plan parsing failed; only flown route is shown


Map Options




Map Legend


Flown Route
Filed Route
Departure Airport
Arrival Airport
Navaid (VOR, NDB)
Fix

Horizontal Profiles

Position Reports

Time Latitude Longitude Heading Altitude Ground
Speed
29-Jul-18 08:40 45.591195 -122.593974 222 26ft 0kts
29-Jul-18 08:41 45.591195 -122.593974 222 26ft 0kts
29-Jul-18 08:42 45.591195 -122.593974 222 26ft 0kts
29-Jul-18 08:43 45.591195 -122.593974 222 26ft 0kts
29-Jul-18 08:44 45.591195 -122.593974 222 26ft 0kts
29-Jul-18 08:45 45.591195 -122.593974 222 26ft 0kts
29-Jul-18 08:46 45.591195 -122.593974 222 26ft 0kts
29-Jul-18 08:47 45.591195 -122.593974 222 26ft 0kts
29-Jul-18 08:48 45.591195 -122.593974 222 26ft 0kts
29-Jul-18 08:49 45.591195 -122.593974 222 26ft 0kts
29-Jul-18 08:50 45.591195 -122.593974 222 26ft 0kts
29-Jul-18 08:51 45.591195 -122.593974 222 26ft 0kts
29-Jul-18 08:52 45.591195 -122.593974 222 26ft 0kts
29-Jul-18 08:53 45.591195 -122.593974 222 26ft 0kts
29-Jul-18 08:54 45.591195 -122.593974 222 26ft 0kts
29-Jul-18 08:55 45.591195 -122.593974 222 26ft 0kts
29-Jul-18 08:56 45.591195 -122.593974 222 26ft 0kts
29-Jul-18 08:57 45.591195 -122.593974 222 26ft 0kts
29-Jul-18 08:58 45.591195 -122.593974 222 26ft 0kts
29-Jul-18 08:59 45.591195 -122.593974 222 26ft 0kts
29-Jul-18 09:00 45.591195 -122.593974 222 26ft 0kts
29-Jul-18 09:01 45.591195 -122.593974 222 26ft 0kts
29-Jul-18 09:02 45.591195 -122.593974 222 26ft 0kts
29-Jul-18 09:03 45.591195 -122.593974 222 26ft 0kts
29-Jul-18 09:04 45.591195 -122.593974 222 26ft 0kts
29-Jul-18 09:05 45.591195 -122.593974 222 26ft 0kts
29-Jul-18 09:06 45.591195 -122.593974 222 26ft 0kts
29-Jul-18 09:07 45.591195 -122.593974 222 26ft 0kts
29-Jul-18 09:08 45.591195 -122.593974 222 26ft 0kts
29-Jul-18 09:09 45.591195 -122.593974 222 26ft 0kts
29-Jul-18 09:10 45.591195 -122.593974 222 26ft 0kts
29-Jul-18 09:11 45.591195 -122.593974 222 26ft 0kts
29-Jul-18 09:12 45.591195 -122.593974 222 26ft 0kts
29-Jul-18 09:13 45.591195 -122.593974 222 26ft 0kts
29-Jul-18 09:14 45.591195 -122.593974 222 26ft 0kts
29-Jul-18 09:15 45.591195 -122.593974 222 26ft 0kts
29-Jul-18 09:16 45.591195 -122.593974 222 26ft 0kts
29-Jul-18 09:17 45.591195 -122.593974 222 26ft 0kts
29-Jul-18 09:18 45.591195 -122.593974 222 26ft 0kts
29-Jul-18 09:19 45.591195 -122.593974 222 26ft 0kts
29-Jul-18 09:20 45.591195 -122.593974 222 26ft 0kts
29-Jul-18 09:21 45.591195 -122.593974 222 26ft 0kts
29-Jul-18 09:22 45.591195 -122.593974 222 26ft 0kts
29-Jul-18 09:23 45.591195 -122.593974 222 26ft 0kts
29-Jul-18 09:24 45.591195 -122.593974 222 26ft 0kts
29-Jul-18 09:25 45.591195 -122.593974 222 26ft 0kts
29-Jul-18 09:26 45.591195 -122.593974 222 26ft 0kts
29-Jul-18 09:27 45.591195 -122.593974 222 26ft 0kts
29-Jul-18 09:28 45.591195 -122.593974 222 26ft 0kts
29-Jul-18 09:29 45.591195 -122.593974 222 26ft 0kts
29-Jul-18 09:30 45.591195 -122.593974 222 26ft 0kts
29-Jul-18 09:31 45.591195 -122.593974 222 26ft 0kts
29-Jul-18 09:32 45.591195 -122.593974 222 26ft 0kts
29-Jul-18 09:33 45.591195 -122.593974 222 26ft 0kts
29-Jul-18 09:34 45.591195 -122.593974 222 26ft 0kts
29-Jul-18 09:35 45.591195 -122.593974 222 26ft 0kts
29-Jul-18 09:36 45.591195 -122.593974 222 26ft 0kts
29-Jul-18 09:37 45.591195 -122.593974 222 26ft 0kts
29-Jul-18 09:38 45.591195 -122.593974 222 26ft 0kts
29-Jul-18 09:39 45.591195 -122.593974 222 26ft 0kts
29-Jul-18 09:40 45.591195 -122.593974 222 26ft 0kts
29-Jul-18 09:41 45.591195 -122.593974 222 26ft 0kts
29-Jul-18 09:42 45.591195 -122.593974 222 26ft 0kts
29-Jul-18 09:43 45.591195 -122.593974 222 26ft 0kts
29-Jul-18 09:44 45.591195 -122.593974 222 26ft 0kts
29-Jul-18 09:45 45.591195 -122.593974 222 26ft 0kts
29-Jul-18 09:46 45.591631 -122.593403 215 26ft 2kts
29-Jul-18 09:47 45.592071 -122.593245 173 26ft 0kts
29-Jul-18 09:48 45.592071 -122.593245 173 26ft 0kts
29-Jul-18 09:49 45.592070 -122.593245 173 26ft 0kts
29-Jul-18 09:50 45.592069 -122.593245 173 26ft 0kts
29-Jul-18 09:51 45.592069 -122.593245 173 26ft 0kts
29-Jul-18 09:52 45.591755 -122.592803 120 26ft 5kts
29-Jul-18 09:53 45.591203 -122.591501 119 26ft 0kts
29-Jul-18 09:54 45.590392 -122.588771 97 26ft 15kts
29-Jul-18 09:55 45.589181 -122.584660 117 26ft 10kts
29-Jul-18 09:56 45.588999 -122.584086 113 26ft 0kts
29-Jul-18 09:57 45.588998 -122.584085 113 26ft 0kts
29-Jul-18 09:58 45.588998 -122.584085 113 26ft 0kts
29-Jul-18 09:59 45.588998 -122.584085 113 26ft 0kts
29-Jul-18 10:00 45.588998 -122.584085 113 26ft 0kts
29-Jul-18 10:01 45.588998 -122.584085 113 26ft 0kts
29-Jul-18 10:02 45.588998 -122.584084 113 26ft 0kts
29-Jul-18 10:03 45.588998 -122.584084 113 26ft 0kts
29-Jul-18 10:04 45.588998 -122.584083 113 26ft 0kts
29-Jul-18 10:05 45.588997 -122.584082 113 26ft 0kts
29-Jul-18 10:06 45.587473 -122.579970 119 26ft 22kts
29-Jul-18 10:07 45.584944 -122.573601 120 26ft 23kts
29-Jul-18 10:08 45.582685 -122.567955 106 26ft 10kts
29-Jul-18 10:09 45.582846 -122.567355 34 26ft 0kts
29-Jul-18 10:10 45.582846 -122.567355 34 26ft 0kts
29-Jul-18 10:11 45.584054 -122.568126 299 26ft 13kts
29-Jul-18 10:12 45.599966 -122.608479 300 1653ft 186kts
29-Jul-18 10:13 45.624156 -122.688627 297 4403ft 263kts
29-Jul-18 10:14 45.663122 -122.785449 296 6910ft 294kts
29-Jul-18 10:15 45.653246 -122.896851 229 7940ft 296kts
29-Jul-18 10:16 45.579058 -122.910375 159 11294ft 308kts
29-Jul-18 10:17 45.515496 -122.815185 115 13200ft 369kts
29-Jul-18 10:18 45.473509 -122.676531 114 15916ft 391kts
29-Jul-18 10:19 45.428209 -122.530622 115 18359ft 412kts
29-Jul-18 10:20 45.380879 -122.378562 114 20676ft 429kts
29-Jul-18 10:21 45.331440 -122.220432 116 22755ft 444kts
29-Jul-18 10:22 45.288366 -122.085277 116 24317ft 456kts
29-Jul-18 10:23 45.237184 -121.917786 112 25967ft 472kts
29-Jul-18 10:24 45.192281 -121.740111 111 27524ft 484kts
29-Jul-18 10:25 45.145504 -121.559146 112 28907ft 495kts
29-Jul-18 10:26 45.090161 -121.344532 112 30816ft 497kts
29-Jul-18 10:27 45.050188 -121.191598 113 32105ft 498kts
29-Jul-18 10:28 45.001636 -121.007718 113 33148ft 506kts
29-Jul-18 10:29 44.952102 -120.821732 113 33163ft 505kts
29-Jul-18 10:30 44.902142 -120.635627 114 33174ft 507kts
29-Jul-18 10:31 44.851906 -120.449933 114 33176ft 508kts
29-Jul-18 10:32 44.801099 -120.263562 114 33183ft 510kts
29-Jul-18 10:33 44.759432 -120.111343 114 33189ft 511kts
29-Jul-18 10:34 44.708022 -119.924725 114 33199ft 514kts
29-Jul-18 10:35 44.655618 -119.737406 114 33211ft 515kts
29-Jul-18 10:36 44.601778 -119.551316 116 33226ft 514kts
29-Jul-18 10:37 44.546791 -119.366218 115 33241ft 515kts
29-Jul-18 10:38 44.491850 -119.180346 115 33252ft 517kts
29-Jul-18 10:39 44.436840 -118.994478 115 33259ft 517kts
29-Jul-18 10:40 44.381207 -118.808671 115 33258ft 519kts
29-Jul-18 10:41 44.325154 -118.623020 116 33258ft 520kts
29-Jul-18 10:42 44.268361 -118.436351 116 33255ft 523kts
29-Jul-18 10:43 44.211126 -118.249603 116 33249ft 525kts
29-Jul-18 10:44 44.153359 -118.062481 116 33241ft 526kts
29-Jul-18 10:45 44.095300 -117.875778 116 33228ft 525kts
29-Jul-18 10:46 44.037042 -117.689773 116 33212ft 526kts
29-Jul-18 10:47 43.978170 -117.503132 116 33186ft 526kts
29-Jul-18 10:48 43.919228 -117.317599 116 33170ft 527kts
29-Jul-18 10:49 43.859932 -117.132252 116 33166ft 526kts
29-Jul-18 10:50 43.800052 -116.946383 117 33169ft 528kts
29-Jul-18 10:51 43.739921 -116.761040 116 33177ft 529kts
29-Jul-18 10:52 43.679149 -116.574615 116 33178ft 531kts
29-Jul-18 10:53 43.618206 -116.388909 117 33173ft 532kts
29-Jul-18 10:54 43.556364 -116.202857 117 33179ft 533kts
29-Jul-18 10:55 43.485912 -116.024317 123 33185ft 531kts
29-Jul-18 10:56 43.412896 -115.846983 122 33197ft 531kts
29-Jul-18 10:57 43.340765 -115.669953 122 33205ft 532kts
29-Jul-18 10:58 43.268517 -115.493308 122 33210ft 531kts
29-Jul-18 10:59 43.195879 -115.317162 122 33218ft 531kts
29-Jul-18 11:00 43.123396 -115.142534 122 33232ft 529kts
29-Jul-18 11:01 43.049888 -114.966523 122 33248ft 530kts
29-Jul-18 11:02 42.976361 -114.791517 122 33265ft 530kts
29-Jul-18 11:03 42.902655 -114.617122 123 33264ft 530kts
29-Jul-18 11:04 42.828772 -114.443348 123 33262ft 530kts
29-Jul-18 11:05 42.754760 -114.270281 123 33261ft 530kts
29-Jul-18 11:06 42.680386 -114.096642 123 33255ft 530kts
29-Jul-18 11:07 42.605559 -113.924251 123 33251ft 531kts
29-Jul-18 11:08 42.512233 -113.772214 141 33250ft 521kts
29-Jul-18 11:09 42.408252 -113.635067 140 33252ft 522kts
29-Jul-18 11:10 42.304693 -113.497648 140 33253ft 522kts
29-Jul-18 11:11 42.201242 -113.360947 140 33256ft 522kts
29-Jul-18 11:12 42.097420 -113.224539 140 31744ft 518kts
29-Jul-18 11:13 41.995763 -113.091043 139 29421ft 503kts
29-Jul-18 11:14 41.897457 -112.962044 138 27228ft 485kts
29-Jul-18 11:15 41.802419 -112.838390 138 25119ft 467kts
29-Jul-18 11:16 41.710431 -112.719535 138 23169ft 447kts
29-Jul-18 11:17 41.622632 -112.606238 138 20738ft 432kts
29-Jul-18 11:18 41.536977 -112.496874 140 17758ft 410kts
29-Jul-18 11:19 41.451957 -112.403038 134 16940ft 402kts
29-Jul-18 11:20 41.377845 -112.291224 133 14343ft 401kts
29-Jul-18 11:21 41.299782 -112.192519 159 13110ft 365kts
29-Jul-18 11:22 41.202327 -112.161330 171 12704ft 360kts
29-Jul-18 11:23 41.103740 -112.136669 172 12440ft 358kts
29-Jul-18 11:24 41.006158 -112.113127 172 12162ft 355kts
29-Jul-18 11:25 40.908944 -112.089826 172 11868ft 353kts
29-Jul-18 11:26 40.813960 -112.067217 171 11572ft 323kts
29-Jul-18 11:27 40.730182 -112.053484 177 10849ft 288kts
29-Jul-18 11:28 40.655781 -112.046100 177 9755ft 245kts
29-Jul-18 11:29 40.590796 -112.036331 173 8749ft 227kts
29-Jul-18 11:30 40.532744 -112.023214 139 7929ft 195kts
29-Jul-18 11:31 40.552806 -111.976781 7 8071ft 184kts
29-Jul-18 11:32 40.601904 -111.976145 356 7580ft 168kts
29-Jul-18 11:33 40.647671 -111.980804 354 6697ft 163kts
29-Jul-18 11:34 40.692858 -111.985975 354 5836ft 161kts
29-Jul-18 11:35 40.738166 -111.991196 353 4934ft 168kts
29-Jul-18 11:36 40.784877 -111.996648 353 4235ft 149kts
29-Jul-18 11:37 40.795011 -111.996225 83 4235ft 0kts
29-Jul-18 11:38 40.795011 -111.996223 83 4235ft 0kts
29-Jul-18 11:39 40.795011 -111.996221 83 4235ft 0kts
29-Jul-18 11:40 40.795011 -111.996219 83 4235ft 0kts
29-Jul-18 11:41 40.795286 -111.995054 171 4235ft 6kts
29-Jul-18 11:42 40.791622 -111.994824 126 4235ft 34kts
29-Jul-18 11:43 40.788336 -111.989197 153 4235ft 17kts
29-Jul-18 11:44 40.787866 -111.987843 61 4235ft 2kts
29-Jul-18 11:45 40.789115 -111.985597 127 4235ft 1kts
29-Jul-18 11:46 40.789072 -111.985529 129 4235ft 0kts
29-Jul-18 11:47 40.789072 -111.985529 129 4235ft 0kts
29-Jul-18 11:48 40.789072 -111.985529 129 4235ft 0kts
29-Jul-18 11:49 40.789072 -111.985529 129 4235ft 0kts
29-Jul-18 11:50 40.789072 -111.985529 129 4235ft 0kts
29-Jul-18 11:51 40.789072 -111.985529 129 4235ft 0kts

Navigation Log

Ident Type
Flight plan parsing failed, navigation log unavailable